sensor_id;sensor_type;location;lat;lon;timestamp;P1;durP1;ratioP1;P2;durP2;ratioP2
53505;SDS011;39388;50.936;6.848;2022-07-19T00:01:51;4.78;;;3.00;;
53505;SDS011;39388;50.936;6.848;2022-07-19T00:04:22;6.10;;;2.67;;
53505;SDS011;39388;50.936;6.848;2022-07-19T00:06:52;5.50;;;2.70;;
53505;SDS011;39388;50.936;6.848;2022-07-19T00:09:25;6.15;;;2.55;;
53505;SDS011;39388;50.936;6.848;2022-07-19T00:11:56;4.20;;;2.60;;
53505;SDS011;39388;50.936;6.848;2022-07-19T00:14:26;4.20;;;2.60;;
53505;SDS011;39388;50.936;6.848;2022-07-19T00:16:57;4.50;;;2.83;;
53505;SDS011;39388;50.936;6.848;2022-07-19T00:19:28;4.68;;;2.83;;
53505;SDS011;39388;50.936;6.848;2022-07-19T00:21:58;5.55;;;2.80;;
53505;SDS011;39388;50.936;6.848;2022-07-19T00:24:28;5.28;;;2.63;;
53505;SDS011;39388;50.936;6.848;2022-07-19T00:26:59;4.65;;;2.47;;
53505;SDS011;39388;50.936;6.848;2022-07-19T00:29:29;2.35;;;2.10;;
53505;SDS011;39388;50.936;6.848;2022-07-19T00:31:59;5.55;;;2.42;;
53505;SDS011;39388;50.936;6.848;2022-07-19T00:34:30;6.70;;;2.67;;
53505;SDS011;39388;50.936;6.848;2022-07-19T00:37:00;4.45;;;2.42;;
53505;SDS011;39388;50.936;6.848;2022-07-19T00:39:31;6.15;;;2.45;;
53505;SDS011;39388;50.936;6.848;2022-07-19T00:42:01;2.97;;;2.50;;
53505;SDS011;39388;50.936;6.848;2022-07-19T00:44:32;5.88;;;2.30;;
53505;SDS011;39388;50.936;6.848;2022-07-19T00:47:02;3.20;;;2.20;;
53505;SDS011;39388;50.936;6.848;2022-07-19T00:49:34;4.60;;;2.58;;
53505;SDS011;39388;50.936;6.848;2022-07-19T00:52:04;6.60;;;2.30;;
53505;SDS011;39388;50.936;6.848;2022-07-19T00:54:35;3.67;;;2.70;;
53505;SDS011;39388;50.936;6.848;2022-07-19T00:57:09;4.10;;;2.50;;
53505;SDS011;39388;50.936;6.848;2022-07-19T00:59:40;7.18;;;2.85;;
53505;SDS011;39388;50.936;6.848;2022-07-19T01:02:12;3.38;;;2.38;;
53505;SDS011;39388;50.936;6.848;2022-07-19T01:04:43;3.97;;;2.33;;
53505;SDS011;39388;50.936;6.848;2022-07-19T01:07:13;2.63;;;2.17;;
53505;SDS011;39388;50.936;6.848;2022-07-19T01:09:44;2.75;;;2.10;;
53505;SDS011;39388;50.936;6.848;2022-07-19T01:12:14;5.18;;;2.08;;
53505;SDS011;39388;50.936;6.848;2022-07-19T01:14:46;3.00;;;2.13;;
53505;SDS011;39388;50.936;6.848;2022-07-19T01:17:16;2.33;;;2.10;;
53505;SDS011;39388;50.936;6.848;2022-07-19T01:19:47;2.83;;;2.05;;
53505;SDS011;39388;50.936;6.848;2022-07-19T01:22:17;2.42;;;2.13;;
53505;SDS011;39388;50.936;6.848;2022-07-19T01:24:48;3.28;;;2.10;;
53505;SDS011;39388;50.936;6.848;2022-07-19T01:27:18;4.72;;;2.33;;
53505;SDS011;39388;50.936;6.848;2022-07-19T01:29:48;4.15;;;2.28;;
53505;SDS011;39388;50.936;6.848;2022-07-19T01:32:19;5.13;;;2.20;;
53505;SDS011;39388;50.936;6.848;2022-07-19T01:34:49;5.07;;;2.40;;
53505;SDS011;39388;50.936;6.848;2022-07-19T01:37:19;3.58;;;2.53;;
53505;SDS011;39388;50.936;6.848;2022-07-19T01:39:50;3.60;;;2.17;;
53505;SDS011;39388;50.936;6.848;2022-07-19T01:42:20;3.13;;;2.40;;
53505;SDS011;39388;50.936;6.848;2022-07-19T01:44:51;3.25;;;2.53;;
53505;SDS011;39388;50.936;6.848;2022-07-19T01:47:21;5.00;;;2.45;;
53505;SDS011;39388;50.936;6.848;2022-07-19T01:49:52;4.97;;;2.70;;
53505;SDS011;39388;50.936;6.848;2022-07-19T01:52:22;4.00;;;2.70;;
53505;SDS011;39388;50.936;6.848;2022-07-19T01:54:52;3.70;;;2.92;;
53505;SDS011;39388;50.936;6.848;2022-07-19T01:57:23;6.90;;;2.70;;
53505;SDS011;39388;50.936;6.848;2022-07-19T01:59:53;6.32;;;3.08;;
53505;SDS011;39388;50.936;6.848;2022-07-19T02:02:24;4.43;;;2.65;;
53505;SDS011;39388;50.936;6.848;2022-07-19T02:04:54;4.57;;;2.63;;
53505;SDS011;39388;50.936;6.848;2022-07-19T02:07:25;4.40;;;2.55;;
53505;SDS011;39388;50.936;6.848;2022-07-19T02:09:56;7.55;;;2.50;;
53505;SDS011;39388;50.936;6.848;2022-07-19T02:12:27;6.07;;;2.53;;
53505;SDS011;39388;50.936;6.848;2022-07-19T02:14:59;3.38;;;2.25;;
53505;SDS011;39388;50.936;6.848;2022-07-19T02:17:29;4.40;;;2.45;;
53505;SDS011;39388;50.936;6.848;2022-07-19T02:19:59;3.35;;;2.15;;
53505;SDS011;39388;50.936;6.848;2022-07-19T02:22:30;2.70;;;1.90;;
53505;SDS011;39388;50.936;6.848;2022-07-19T02:25:00;6.28;;;2.08;;
53505;SDS011;39388;50.936;6.848;2022-07-19T02:27:31;2.58;;;2.05;;
53505;SDS011;39388;50.936;6.848;2022-07-19T02:30:02;3.45;;;2.00;;
53505;SDS011;39388;50.936;6.848;2022-07-19T02:32:33;2.03;;;1.83;;
53505;SDS011;39388;50.936;6.848;2022-07-19T02:35:05;4.07;;;2.22;;
53505;SDS011;39388;50.936;6.848;2022-07-19T02:37:38;4.32;;;2.10;;
53505;SDS011;39388;50.936;6.848;2022-07-19T02:40:10;2.45;;;2.10;;
53505;SDS011;39388;50.936;6.848;2022-07-19T02:42:41;2.10;;;1.90;;
53505;SDS011;39388;50.936;6.848;2022-07-19T02:45:11;4.75;;;2.58;;
53505;SDS011;39388;50.936;6.848;2022-07-19T02:47:42;3.53;;;2.50;;
53505;SDS011;39388;50.936;6.848;2022-07-19T02:50:12;5.93;;;2.60;;
53505;SDS011;39388;50.936;6.848;2022-07-19T02:52:43;5.13;;;2.00;;
53505;SDS011;39388;50.936;6.848;2022-07-19T02:55:13;3.15;;;2.13;;
53505;SDS011;39388;50.936;6.848;2022-07-19T02:57:43;2.50;;;2.03;;
53505;SDS011;39388;50.936;6.848;2022-07-19T03:00:14;2.42;;;2.03;;
53505;SDS011;39388;50.936;6.848;2022-07-19T03:02:45;2.30;;;2.00;;
53505;SDS011;39388;50.936;6.848;2022-07-19T03:05:15;3.75;;;2.08;;
53505;SDS011;39388;50.936;6.848;2022-07-19T03:07:45;3.67;;;2.30;;
53505;SDS011;39388;50.936;6.848;2022-07-19T03:10:16;3.25;;;2.28;;
53505;SDS011;39388;50.936;6.848;2022-07-19T03:12:46;3.65;;;2.25;;
53505;SDS011;39388;50.936;6.848;2022-07-19T03:15:17;3.25;;;2.20;;
53505;SDS011;39388;50.936;6.848;2022-07-19T03:17:47;3.15;;;2.20;;
53505;SDS011;39388;50.936;6.848;2022-07-19T03:20:17;2.83;;;2.10;;
53505;SDS011;39388;50.936;6.848;2022-07-19T03:22:48;2.67;;;2.20;;
53505;SDS011;39388;50.936;6.848;2022-07-19T03:25:18;5.20;;;2.05;;
53505;SDS011;39388;50.936;6.848;2022-07-19T03:27:49;4.35;;;2.08;;
53505;SDS011;39388;50.936;6.848;2022-07-19T03:30:19;2.75;;;2.10;;
53505;SDS011;39388;50.936;6.848;2022-07-19T03:32:50;3.03;;;2.05;;
53505;SDS011;39388;50.936;6.848;2022-07-19T03:35:21;4.05;;;2.08;;
53505;SDS011;39388;50.936;6.848;2022-07-19T03:37:51;2.10;;;1.80;;
53505;SDS011;39388;50.936;6.848;2022-07-19T03:40:21;4.63;;;2.20;;
53505;SDS011;39388;50.936;6.848;2022-07-19T03:42:52;4.32;;;2.30;;
53505;SDS011;39388;50.936;6.848;2022-07-19T03:45:22;6.72;;;2.10;;
53505;SDS011;39388;50.936;6.848;2022-07-19T03:47:53;3.75;;;2.20;;
53505;SDS011;39388;50.936;6.848;2022-07-19T03:50:23;4.53;;;2.38;;
53505;SDS011;39388;50.936;6.848;2022-07-19T03:52:53;3.33;;;2.00;;
53505;SDS011;39388;50.936;6.848;2022-07-19T03:55:24;2.78;;;2.15;;
53505;SDS011;39388;50.936;6.848;2022-07-19T03:57:54;4.05;;;1.98;;
53505;SDS011;39388;50.936;6.848;2022-07-19T04:00:25;4.38;;;2.20;;
53505;SDS011;39388;50.936;6.848;2022-07-19T04:02:56;2.47;;;1.90;;
53505;SDS011;39388;50.936;6.848;2022-07-19T04:05:26;2.60;;;1.90;;
53505;SDS011;39388;50.936;6.848;2022-07-19T04:07:56;4.57;;;2.05;;
53505;SDS011;39388;50.936;6.848;2022-07-19T04:10:27;3.47;;;2.35;;
53505;SDS011;39388;50.936;6.848;2022-07-19T04:12:57;3.15;;;2.17;;
53505;SDS011;39388;50.936;6.848;2022-07-19T04:15:27;2.70;;;1.90;;
53505;SDS011;39388;50.936;6.848;2022-07-19T04:17:58;3.70;;;2.03;;
53505;SDS011;39388;50.936;6.848;2022-07-19T04:20:28;3.10;;;2.17;;
53505;SDS011;39388;50.936;6.848;2022-07-19T04:22:59;3.25;;;2.00;;
53505;SDS011;39388;50.936;6.848;2022-07-19T04:25:29;2.90;;;2.33;;
53505;SDS011;39388;50.936;6.848;2022-07-19T04:28:00;4.28;;;2.05;;
53505;SDS011;39388;50.936;6.848;2022-07-19T04:30:31;2.15;;;1.80;;
53505;SDS011;39388;50.936;6.848;2022-07-19T04:33:02;3.45;;;2.20;;
53505;SDS011;39388;50.936;6.848;2022-07-19T04:35:32;2.92;;;1.92;;
53505;SDS011;39388;50.936;6.848;2022-07-19T04:38:03;3.45;;;2.10;;
53505;SDS011;39388;50.936;6.848;2022-07-19T04:40:33;4.57;;;2.20;;
53505;SDS011;39388;50.936;6.848;2022-07-19T04:43:04;2.72;;;1.67;;
53505;SDS011;39388;50.936;6.848;2022-07-19T04:45:34;3.20;;;2.08;;
53505;SDS011;39388;50.936;6.848;2022-07-19T04:48:05;3.80;;;2.20;;
53505;SDS011;39388;50.936;6.848;2022-07-19T04:50:35;3.58;;;2.00;;
53505;SDS011;39388;50.936;6.848;2022-07-19T04:53:06;3.83;;;1.83;;
53505;SDS011;39388;50.936;6.848;2022-07-19T04:55:37;3.72;;;2.17;;
53505;SDS011;39388;50.936;6.848;2022-07-19T04:58:08;2.42;;;1.90;;
53505;SDS011;39388;50.936;6.848;2022-07-19T05:00:39;5.00;;;2.38;;
53505;SDS011;39388;50.936;6.848;2022-07-19T05:03:09;23.02;;;4.75;;
53505;SDS011;39388;50.936;6.848;2022-07-19T05:05:39;40.70;;;5.90;;
53505;SDS011;39388;50.936;6.848;2022-07-19T05:08:10;13.30;;;3.17;;
53505;SDS011;39388;50.936;6.848;2022-07-19T05:10:40;7.22;;;2.42;;
53505;SDS011;39388;50.936;6.848;2022-07-19T05:13:11;8.57;;;2.60;;
53505;SDS011;39388;50.936;6.848;2022-07-19T05:15:41;3.70;;;2.38;;
53505;SDS011;39388;50.936;6.848;2022-07-19T05:18:11;2.78;;;2.03;;
53505;SDS011;39388;50.936;6.848;2022-07-19T05:20:42;3.95;;;2.03;;
53505;SDS011;39388;50.936;6.848;2022-07-19T05:23:12;3.00;;;1.90;;
53505;SDS011;39388;50.936;6.848;2022-07-19T05:25:43;3.08;;;2.50;;
53505;SDS011;39388;50.936;6.848;2022-07-19T05:28:13;5.10;;;2.25;;
53505;SDS011;39388;50.936;6.848;2022-07-19T05:30:43;3.85;;;2.20;;
53505;SDS011;39388;50.936;6.848;2022-07-19T05:33:14;4.38;;;2.15;;
53505;SDS011;39388;50.936;6.848;2022-07-19T05:35:46;5.57;;;2.42;;
53505;SDS011;39388;50.936;6.848;2022-07-19T05:38:16;5.43;;;2.30;;
53505;SDS011;39388;50.936;6.848;2022-07-19T05:40:47;3.90;;;2.22;;
53505;SDS011;39388;50.936;6.848;2022-07-19T05:43:18;4.38;;;2.40;;
53505;SDS011;39388;50.936;6.848;2022-07-19T05:45:48;10.43;;;2.40;;
53505;SDS011;39388;50.936;6.848;2022-07-19T05:48:18;5.57;;;2.17;;
53505;SDS011;39388;50.936;6.848;2022-07-19T05:50:49;4.72;;;2.30;;
53505;SDS011;39388;50.936;6.848;2022-07-19T05:53:19;5.10;;;2.35;;
53505;SDS011;39388;50.936;6.848;2022-07-19T05:55:50;4.47;;;2.13;;
53505;SDS011;39388;50.936;6.848;2022-07-19T05:58:20;3.15;;;2.22;;
53505;SDS011;39388;50.936;6.848;2022-07-19T06:00:51;3.35;;;2.00;;
53505;SDS011;39388;50.936;6.848;2022-07-19T06:03:40;6.15;;;2.15;;
53505;SDS011;39388;50.936;6.848;2022-07-19T06:06:10;3.97;;;1.77;;
53505;SDS011;39388;50.936;6.848;2022-07-19T06:08:41;3.00;;;2.10;;
53505;SDS011;39388;50.936;6.848;2022-07-19T06:11:12;4.55;;;2.17;;
53505;SDS011;39388;50.936;6.848;2022-07-19T06:16:15;4.65;;;1.90;;
53505;SDS011;39388;50.936;6.848;2022-07-19T06:18:46;2.78;;;2.00;;
53505;SDS011;39388;50.936;6.848;2022-07-19T06:21:17;5.53;;;2.28;;
53505;SDS011;39388;50.936;6.848;2022-07-19T06:23:49;4.82;;;2.20;;
53505;SDS011;39388;50.936;6.848;2022-07-19T06:26:19;2.35;;;2.10;;
53505;SDS011;39388;50.936;6.848;2022-07-19T06:28:49;5.32;;;2.20;;
53505;SDS011;39388;50.936;6.848;2022-07-19T06:31:20;4.20;;;2.08;;
53505;SDS011;39388;50.936;6.848;2022-07-19T06:33:51;6.95;;;2.55;;
53505;SDS011;39388;50.936;6.848;2022-07-19T06:36:21;3.42;;;2.17;;
53505;SDS011;39388;50.936;6.848;2022-07-19T06:38:52;4.72;;;2.08;;
53505;SDS011;39388;50.936;6.848;2022-07-19T06:41:22;3.90;;;2.08;;
53505;SDS011;39388;50.936;6.848;2022-07-19T06:43:53;5.35;;;2.13;;
53505;SDS011;39388;50.936;6.848;2022-07-19T06:46:23;5.57;;;2.00;;
53505;SDS011;39388;50.936;6.848;2022-07-19T06:48:53;5.13;;;2.10;;
53505;SDS011;39388;50.936;6.848;2022-07-19T06:51:24;4.63;;;2.17;;
53505;SDS011;39388;50.936;6.848;2022-07-19T06:53:54;4.55;;;2.03;;
53505;SDS011;39388;50.936;6.848;2022-07-19T06:56:24;3.65;;;2.38;;
53505;SDS011;39388;50.936;6.848;2022-07-19T06:58:55;6.72;;;2.13;;
53505;SDS011;39388;50.936;6.848;2022-07-19T07:01:25;9.15;;;2.03;;
53505;SDS011;39388;50.936;6.848;2022-07-19T07:03:56;3.20;;;1.87;;
53505;SDS011;39388;50.936;6.848;2022-07-19T07:06:26;5.83;;;2.07;;
53505;SDS011;39388;50.936;6.848;2022-07-19T07:08:57;3.23;;;2.03;;
53505;SDS011;39388;50.936;6.848;2022-07-19T07:11:27;4.63;;;2.03;;
53505;SDS011;39388;50.936;6.848;2022-07-19T07:13:58;5.10;;;2.07;;
53505;SDS011;39388;50.936;6.848;2022-07-19T07:16:28;3.17;;;2.10;;
53505;SDS011;39388;50.936;6.848;2022-07-19T07:18:59;4.90;;;1.97;;
53505;SDS011;39388;50.936;6.848;2022-07-19T07:21:29;3.80;;;1.70;;
53505;SDS011;39388;50.936;6.848;2022-07-19T07:24:06;5.50;;;2.10;;
53505;SDS011;39388;50.936;6.848;2022-07-19T07:26:36;4.35;;;2.10;;
53505;SDS011;39388;50.936;6.848;2022-07-19T07:29:07;3.13;;;1.87;;
53505;SDS011;39388;50.936;6.848;2022-07-19T07:31:37;3.23;;;2.10;;
53505;SDS011;39388;50.936;6.848;2022-07-19T07:34:08;6.20;;;2.17;;
53505;SDS011;39388;50.936;6.848;2022-07-19T07:39:10;5.53;;;2.08;;
53505;SDS011;39388;50.936;6.848;2022-07-19T07:41:41;3.47;;;2.00;;
53505;SDS011;39388;50.936;6.848;2022-07-19T07:44:12;4.20;;;1.80;;
53505;SDS011;39388;50.936;6.848;2022-07-19T07:46:42;3.50;;;2.20;;
53505;SDS011;39388;50.936;6.848;2022-07-19T07:49:13;5.63;;;2.07;;
53505;SDS011;39388;50.936;6.848;2022-07-19T07:51:43;7.47;;;2.27;;
53505;SDS011;39388;50.936;6.848;2022-07-19T07:54:13;3.60;;;1.90;;
53505;SDS011;39388;50.936;6.848;2022-07-19T07:56:44;3.00;;;2.00;;
53505;SDS011;39388;50.936;6.848;2022-07-19T07:59:14;6.07;;;1.80;;
53505;SDS011;39388;50.936;6.848;2022-07-19T08:01:45;2.40;;;1.60;;
53505;SDS011;39388;50.936;6.848;2022-07-19T08:04:15;3.93;;;1.70;;
53505;SDS011;39388;50.936;6.848;2022-07-19T08:06:45;5.93;;;1.83;;
53505;SDS011;39388;50.936;6.848;2022-07-19T08:09:16;4.23;;;1.90;;
53505;SDS011;39388;50.936;6.848;2022-07-19T08:11:46;4.83;;;1.93;;
53505;SDS011;39388;50.936;6.848;2022-07-19T08:14:17;3.60;;;1.80;;
53505;SDS011;39388;50.936;6.848;2022-07-19T08:16:47;43.50;;;12.57;;
53505;SDS011;39388;50.936;6.848;2022-07-19T08:19:17;37.00;;;10.27;;
53505;SDS011;39388;50.936;6.848;2022-07-19T08:21:48;22.93;;;6.07;;
53505;SDS011;39388;50.936;6.848;2022-07-19T08:24:18;8.93;;;3.77;;
53505;SDS011;39388;50.936;6.848;2022-07-19T08:26:49;4.77;;;1.90;;
53505;SDS011;39388;50.936;6.848;2022-07-19T08:29:19;4.90;;;1.77;;
53505;SDS011;39388;50.936;6.848;2022-07-19T08:31:49;2.87;;;1.83;;
53505;SDS011;39388;50.936;6.848;2022-07-19T08:34:20;3.90;;;1.90;;
53505;SDS011;39388;50.936;6.848;2022-07-19T08:36:50;3.10;;;1.93;;
53505;SDS011;39388;50.936;6.848;2022-07-19T08:39:21;3.77;;;2.00;;
53505;SDS011;39388;50.936;6.848;2022-07-19T08:41:52;6.60;;;1.60;;
53505;SDS011;39388;50.936;6.848;2022-07-19T08:44:22;3.90;;;2.00;;
53505;SDS011;39388;50.936;6.848;2022-07-19T08:46:52;5.00;;;1.87;;
53505;SDS011;39388;50.936;6.848;2022-07-19T08:49:24;9.35;;;2.28;;
53505;SDS011;39388;50.936;6.848;2022-07-19T08:51:54;8.40;;;2.00;;
53505;SDS011;39388;50.936;6.848;2022-07-19T08:54:25;4.07;;;1.92;;
53505;SDS011;39388;50.936;6.848;2022-07-19T08:56:55;3.07;;;1.70;;
53505;SDS011;39388;50.936;6.848;2022-07-19T08:59:44;9.18;;;1.80;;
53505;SDS011;39388;50.936;6.848;2022-07-19T09:02:14;5.10;;;1.90;;
53505;SDS011;39388;50.936;6.848;2022-07-19T09:04:58;3.57;;;1.70;;
53505;SDS011;39388;50.936;6.848;2022-07-19T09:07:32;4.10;;;2.05;;
53505;SDS011;39388;50.936;6.848;2022-07-19T09:10:18;6.57;;;2.13;;
53505;SDS011;39388;50.936;6.848;2022-07-19T09:12:58;4.78;;;1.75;;
53505;SDS011;39388;50.936;6.848;2022-07-19T09:15:43;3.38;;;1.90;;
53505;SDS011;39388;50.936;6.848;2022-07-19T09:21:00;5.85;;;1.88;;
53505;SDS011;39388;50.936;6.848;2022-07-19T09:23:32;3.28;;;1.95;;
53505;SDS011;39388;50.936;6.848;2022-07-19T09:26:04;4.53;;;1.90;;
53505;SDS011;39388;50.936;6.848;2022-07-19T09:28:35;4.75;;;2.08;;
53505;SDS011;39388;50.936;6.848;2022-07-19T09:31:06;7.88;;;2.00;;
53505;SDS011;39388;50.936;6.848;2022-07-19T09:33:39;4.97;;;1.98;;
53505;SDS011;39388;50.936;6.848;2022-07-19T09:36:16;3.75;;;1.60;;
53505;SDS011;39388;50.936;6.848;2022-07-19T09:38:46;4.37;;;1.60;;
53505;SDS011;39388;50.936;6.848;2022-07-19T09:41:21;6.00;;;1.65;;
53505;SDS011;39388;50.936;6.848;2022-07-19T09:46:36;3.80;;;1.70;;
53505;SDS011;39388;50.936;6.848;2022-07-19T09:49:13;4.28;;;1.70;;
53505;SDS011;39388;50.936;6.848;2022-07-19T09:51:48;3.60;;;1.67;;
53505;SDS011;39388;50.936;6.848;2022-07-19T09:54:21;3.70;;;1.88;;
53505;SDS011;39388;50.936;6.848;2022-07-19T09:56:53;5.30;;;1.70;;
53505;SDS011;39388;50.936;6.848;2022-07-19T09:59:26;4.90;;;1.80;;
53505;SDS011;39388;50.936;6.848;2022-07-19T10:01:57;3.75;;;1.42;;
53505;SDS011;39388;50.936;6.848;2022-07-19T10:04:28;3.63;;;1.50;;
53505;SDS011;39388;50.936;6.848;2022-07-19T10:07:02;4.72;;;1.50;;
53505;SDS011;39388;50.936;6.848;2022-07-19T10:09:33;2.45;;;1.50;;
53505;SDS011;39388;50.936;6.848;2022-07-19T10:12:05;3.15;;;1.55;;
53505;SDS011;39388;50.936;6.848;2022-07-19T10:14:36;7.65;;;1.77;;
53505;SDS011;39388;50.936;6.848;2022-07-19T10:19:58;4.45;;;1.58;;
53505;SDS011;39388;50.936;6.848;2022-07-19T10:22:29;1.65;;;1.40;;
53505;SDS011;39388;50.936;6.848;2022-07-19T10:27:35;2.90;;;1.67;;
53505;SDS011;39388;50.936;6.848;2022-07-19T10:32:44;5.97;;;1.63;;
53505;SDS011;39388;50.936;6.848;2022-07-19T10:38:09;4.57;;;1.63;;
53505;SDS011;39388;50.936;6.848;2022-07-19T10:43:22;3.22;;;1.60;;
53505;SDS011;39388;50.936;6.848;2022-07-19T10:48:50;3.53;;;1.67;;
53505;SDS011;39388;50.936;6.848;2022-07-19T10:51:33;3.30;;;1.52;;
53505;SDS011;39388;50.936;6.848;2022-07-19T10:54:07;3.22;;;1.40;;
53505;SDS011;39388;50.936;6.848;2022-07-19T10:59:12;2.25;;;1.30;;
53505;SDS011;39388;50.936;6.848;2022-07-19T11:01:55;5.67;;;2.00;;
53505;SDS011;39388;50.936;6.848;2022-07-19T11:04:33;2.22;;;1.20;;
53505;SDS011;39388;50.936;6.848;2022-07-19T11:09:43;4.22;;;1.55;;
53505;SDS011;39388;50.936;6.848;2022-07-19T11:14:58;4.18;;;1.40;;
53505;SDS011;39388;50.936;6.848;2022-07-19T11:17:30;3.17;;;1.50;;
53505;SDS011;39388;50.936;6.848;2022-07-19T11:22:33;2.80;;;1.90;;
53505;SDS011;39388;50.936;6.848;2022-07-19T11:25:05;1.92;;;1.50;;
53505;SDS011;39388;50.936;6.848;2022-07-19T11:27:41;2.17;;;1.40;;
53505;SDS011;39388;50.936;6.848;2022-07-19T11:30:14;2.53;;;1.60;;
53505;SDS011;39388;50.936;6.848;2022-07-19T11:32:50;4.75;;;1.63;;
53505;SDS011;39388;50.936;6.848;2022-07-19T11:35:25;2.15;;;1.48;;
53505;SDS011;39388;50.936;6.848;2022-07-19T11:37:57;6.20;;;1.95;;
53505;SDS011;39388;50.936;6.848;2022-07-19T11:40:35;5.88;;;1.70;;
53505;SDS011;39388;50.936;6.848;2022-07-19T11:43:07;4.55;;;1.48;;
53505;SDS011;39388;50.936;6.848;2022-07-19T11:45:41;3.10;;;1.48;;
53505;SDS011;39388;50.936;6.848;2022-07-19T11:48:24;2.78;;;1.40;;
53505;SDS011;39388;50.936;6.848;2022-07-19T11:53:39;3.38;;;1.67;;
53505;SDS011;39388;50.936;6.848;2022-07-19T11:56:17;3.72;;;1.65;;
53505;SDS011;39388;50.936;6.848;2022-07-19T11:58:52;2.17;;;1.67;;
53505;SDS011;39388;50.936;6.848;2022-07-19T12:01:27;2.58;;;1.42;;
53505;SDS011;39388;50.936;6.848;2022-07-19T12:04:09;2.38;;;1.90;;
53505;SDS011;39388;50.936;6.848;2022-07-19T12:06:46;5.88;;;2.00;;
53505;SDS011;39388;50.936;6.848;2022-07-19T12:09:27;3.95;;;1.88;;
53505;SDS011;39388;50.936;6.848;2022-07-19T12:11:59;3.72;;;1.70;;
53505;SDS011;39388;50.936;6.848;2022-07-19T12:14:31;3.83;;;1.55;;
53505;SDS011;39388;50.936;6.848;2022-07-19T12:17:08;4.30;;;1.70;;
53505;SDS011;39388;50.936;6.848;2022-07-19T12:19:42;4.43;;;1.60;;
53505;SDS011;39388;50.936;6.848;2022-07-19T12:22:37;3.58;;;1.60;;
53505;SDS011;39388;50.936;6.848;2022-07-19T12:25:10;4.47;;;1.75;;
53505;SDS011;39388;50.936;6.848;2022-07-19T12:27:41;4.22;;;2.05;;
53505;SDS011;39388;50.936;6.848;2022-07-19T12:30:18;3.20;;;1.80;;
53505;SDS011;39388;50.936;6.848;2022-07-19T12:32:49;4.78;;;1.70;;
53505;SDS011;39388;50.936;6.848;2022-07-19T12:35:19;3.92;;;1.70;;
53505;SDS011;39388;50.936;6.848;2022-07-19T12:38:01;3.95;;;1.65;;
53505;SDS011;39388;50.936;6.848;2022-07-19T12:40:33;4.53;;;1.67;;
53505;SDS011;39388;50.936;6.848;2022-07-19T12:43:03;2.40;;;1.33;;
53505;SDS011;39388;50.936;6.848;2022-07-19T12:45:38;4.32;;;1.60;;
53505;SDS011;39388;50.936;6.848;2022-07-19T12:48:14;2.50;;;1.35;;
53505;SDS011;39388;50.936;6.848;2022-07-19T12:50:47;2.83;;;1.77;;
53505;SDS011;39388;50.936;6.848;2022-07-19T12:53:19;5.43;;;1.77;;
53505;SDS011;39388;50.936;6.848;2022-07-19T12:58:20;3.10;;;1.60;;
53505;SDS011;39388;50.936;6.848;2022-07-19T13:01:09;4.28;;;1.60;;
53505;SDS011;39388;50.936;6.848;2022-07-19T13:03:42;1.88;;;1.50;;
53505;SDS011;39388;50.936;6.848;2022-07-19T13:08:43;3.43;;;1.50;;
53505;SDS011;39388;50.936;6.848;2022-07-19T13:13:43;2.60;;;1.43;;
53505;SDS011;39388;50.936;6.848;2022-07-19T13:18:44;3.97;;;1.67;;
53505;SDS011;39388;50.936;6.848;2022-07-19T13:23:45;3.45;;;1.65;;
53505;SDS011;39388;50.936;6.848;2022-07-19T13:28:46;4.93;;;1.70;;
53505;SDS011;39388;50.936;6.848;2022-07-19T13:33:47;2.53;;;1.33;;
53505;SDS011;39388;50.936;6.848;2022-07-19T13:38:47;1.98;;;1.45;;
53505;SDS011;39388;50.936;6.848;2022-07-19T13:43:48;2.25;;;1.60;;
53505;SDS011;39388;50.936;6.848;2022-07-19T13:48:50;4.00;;;1.75;;
53505;SDS011;39388;50.936;6.848;2022-07-19T13:53:51;2.93;;;1.70;;
53505;SDS011;39388;50.936;6.848;2022-07-19T13:56:23;6.40;;;1.70;;
53505;SDS011;39388;50.936;6.848;2022-07-19T14:01:24;2.90;;;1.70;;
53505;SDS011;39388;50.936;6.848;2022-07-19T14:06:26;2.30;;;1.63;;
53505;SDS011;39388;50.936;6.848;2022-07-19T14:11:27;3.57;;;1.80;;
53505;SDS011;39388;50.936;6.848;2022-07-19T14:16:27;3.22;;;1.55;;
53505;SDS011;39388;50.936;6.848;2022-07-19T14:21:28;3.80;;;1.52;;
53505;SDS011;39388;50.936;6.848;2022-07-19T14:24:03;2.30;;;1.38;;
53505;SDS011;39388;50.936;6.848;2022-07-19T14:29:04;2.87;;;1.53;;
53505;SDS011;39388;50.936;6.848;2022-07-19T14:34:05;3.03;;;1.43;;
53505;SDS011;39388;50.936;6.848;2022-07-19T14:39:06;3.13;;;1.60;;
53505;SDS011;39388;50.936;6.848;2022-07-19T14:41:38;2.28;;;1.58;;
53505;SDS011;39388;50.936;6.848;2022-07-19T14:46:39;3.77;;;1.60;;
53505;SDS011;39388;50.936;6.848;2022-07-19T14:51:39;4.40;;;1.77;;
53505;SDS011;39388;50.936;6.848;2022-07-19T14:56:40;2.23;;;1.67;;
53505;SDS011;39388;50.936;6.848;2022-07-19T15:01:41;3.00;;;1.65;;
53505;SDS011;39388;50.936;6.848;2022-07-19T15:06:42;4.27;;;1.70;;
53505;SDS011;39388;50.936;6.848;2022-07-19T15:11:43;3.87;;;1.90;;
53505;SDS011;39388;50.936;6.848;2022-07-19T15:16:44;2.70;;;1.77;;
53505;SDS011;39388;50.936;6.848;2022-07-19T15:21:45;5.43;;;1.77;;
53505;SDS011;39388;50.936;6.848;2022-07-19T15:26:46;5.70;;;3.30;;
53505;SDS011;39388;50.936;6.848;2022-07-19T15:29:17;2.65;;;1.60;;
53505;SDS011;39388;50.936;6.848;2022-07-19T15:34:18;5.95;;;1.90;;
53505;SDS011;39388;50.936;6.848;2022-07-19T15:39:18;2.30;;;1.73;;
53505;SDS011;39388;50.936;6.848;2022-07-19T15:44:19;3.10;;;1.80;;
53505;SDS011;39388;50.936;6.848;2022-07-19T15:49:20;3.37;;;2.10;;
53505;SDS011;39388;50.936;6.848;2022-07-19T15:54:22;4.70;;;1.80;;
53505;SDS011;39388;50.936;6.848;2022-07-19T15:59:23;2.97;;;1.70;;
53505;SDS011;39388;50.936;6.848;2022-07-19T16:04:23;3.35;;;1.80;;
53505;SDS011;39388;50.936;6.848;2022-07-19T16:09:24;2.03;;;1.70;;
53505;SDS011;39388;50.936;6.848;2022-07-19T16:14:24;1.80;;;1.70;;
53505;SDS011;39388;50.936;6.848;2022-07-19T16:19:25;4.13;;;2.08;;
53505;SDS011;39388;50.936;6.848;2022-07-19T16:24:26;5.93;;;2.10;;
53505;SDS011;39388;50.936;6.848;2022-07-19T16:29:27;3.83;;;3.07;;
53505;SDS011;39388;50.936;6.848;2022-07-19T16:34:29;4.07;;;2.00;;
53505;SDS011;39388;50.936;6.848;2022-07-19T16:36:59;4.40;;;1.90;;
53505;SDS011;39388;50.936;6.848;2022-07-19T16:39:36;5.07;;;1.90;;
53505;SDS011;39388;50.936;6.848;2022-07-19T16:42:07;3.50;;;1.85;;
53505;SDS011;39388;50.936;6.848;2022-07-19T16:44:38;4.13;;;1.80;;
53505;SDS011;39388;50.936;6.848;2022-07-19T16:49:39;5.13;;;1.70;;
53505;SDS011;39388;50.936;6.848;2022-07-19T16:54:39;2.33;;;1.80;;
53505;SDS011;39388;50.936;6.848;2022-07-19T16:57:10;4.97;;;2.10;;
53505;SDS011;39388;50.936;6.848;2022-07-19T17:02:11;6.72;;;2.20;;
53505;SDS011;39388;50.936;6.848;2022-07-19T17:07:14;6.03;;;1.70;;
53505;SDS011;39388;50.936;6.848;2022-07-19T17:09:47;5.43;;;2.10;;
53505;SDS011;39388;50.936;6.848;2022-07-19T17:12:17;3.37;;;1.83;;
53505;SDS011;39388;50.936;6.848;2022-07-19T17:14:48;6.00;;;2.25;;
53505;SDS011;39388;50.936;6.848;2022-07-19T17:17:18;3.28;;;1.90;;
53505;SDS011;39388;50.936;6.848;2022-07-19T17:19:49;4.47;;;2.45;;
53505;SDS011;39388;50.936;6.848;2022-07-19T17:22:19;4.23;;;1.90;;
53505;SDS011;39388;50.936;6.848;2022-07-19T17:27:22;3.03;;;1.95;;
53505;SDS011;39388;50.936;6.848;2022-07-19T17:29:52;2.97;;;2.10;;
53505;SDS011;39388;50.936;6.848;2022-07-19T17:32:22;2.58;;;1.92;;
53505;SDS011;39388;50.936;6.848;2022-07-19T17:34:53;3.70;;;1.73;;
53505;SDS011;39388;50.936;6.848;2022-07-19T17:37:23;3.37;;;1.73;;
53505;SDS011;39388;50.936;6.848;2022-07-19T17:39:54;2.63;;;1.95;;
53505;SDS011;39388;50.936;6.848;2022-07-19T17:42:24;4.93;;;1.87;;
53505;SDS011;39388;50.936;6.848;2022-07-19T17:44:55;3.13;;;1.70;;
53505;SDS011;39388;50.936;6.848;2022-07-19T17:47:25;2.40;;;1.70;;
53505;SDS011;39388;50.936;6.848;2022-07-19T17:49:56;4.38;;;2.10;;